Buffalo, WY (82834)

4:13 AM MST on December 10, 2016 (GMT -0700)
Buffalo | | Change Station

Elev 4708 ft 44.34 °N, 106.70 °W | Updated 16 seconds ago

Partly Cloudy
Partly Cloudy
8.1 °F
Feels Like 8 °F
N
0.0
Wind Variable Wind from SW
Gusts 0.0 mph

Today
High -- | Low -- °F
--% Chance of Precip.
Yesterday
High -- | Low -- °F
Precip. -- in
Pressure 30.05 in
Visibility 10.0 miles
Clouds Few 8000 ft
Windchill 8 °F
Dew Point -2 °F
Humidity 64%
Rainfall 0.00 in
Snow Depth Not available.
7:32 AM 4:27 PM
Waxing Gibbous, 82% visible
METAR KBYG 101053Z AUTO 35005KT 10SM FEW080 M13/M17 A2983 RMK AO2 SLP176 T11281172
Pressure 30.05 in
Visibility 10.0 miles
Clouds Few 8000 ft
Windchill 8 °F
Dew Point -2 °F
Humidity 64%
Rainfall 0.00 in
Snow Depth Not available.
7:32 AM 4:27 PM
Waxing Gibbous, 82% visible
METAR KBYG 101053Z AUTO 35005KT 10SM FEW080 M13/M17 A2983 RMK AO2 SLP176 T11281172

10-Day Weather Forecast

Almanac

Astronomy

Dec. 10, 2016 Rise Set
Actual Time
Civil Twilight
Nautical Twilight
Astronomical Twilight
Moon
Length of Visible Light
Length of Day
Tomorrow will be .
, % of the Moon is Illuminated

Today's Extremes

State Highs State Lows

Community

WunderPhotos

Upload Photos

1,956,536 photos uploaded!

WunderBlog® & News

Nearby

Air Quality

  Air Quality AQ Index Pollutant
Not available.

Snow Depth

Station Depth Elevation

Earthquake Activity

City Distance Mag. Time & Date
Minimum magnitude displayed is 2.5.

Coastal Water Temperatures

Place Temperature

Stations

Nearby Weather Stations

Station Location Temp. Windchill Dew Point Humidity Wind Precip. Elev Updated Type
                   

Watches & Warnings

There are currently no watches in effect.